Time;durP1;ratioP1;P1;durP2;ratioP2;P2;SDS_P1;SDS_P2;PMS_P1;PMS_P2;Temp;Humidity;BMP_temperature;BMP_pressure;BME280_temperature;BME280_humidity;BME280_pressure;Samples;Min_cycle;Max_cycle;Signal;HPM_P1;HPM_P2
2022/04/18 00:01:47;;;;;;;18.17;10.98;;;9.00;99.90;;;;;;5112838;28;20050;-67
2022/04/18 00:04:13;;;;;;;16.17;11.00;;;9.00;99.90;;;;;;5112589;28;20046;-68
2022/04/18 00:06:39;;;;;;;17.92;11.70;;;9.00;99.90;;;;;;5112564;28;20039;-67
2022/04/18 00:09:05;;;;;;;18.20;11.73;;;9.00;99.90;;;;;;5112312;28;20027;-67
2022/04/18 00:11:31;;;;;;;18.83;11.60;;;9.00;99.90;;;;;;5112413;28;20076;-67
2022/04/18 00:13:56;;;;;;;22.00;11.85;;;8.90;99.90;;;;;;5112250;28;20032;-67
2022/04/18 00:16:23;;;;;;;21.10;12.10;;;8.80;99.90;;;;;;5112495;28;20388;-68
2022/04/18 00:18:48;;;;;;;20.80;11.57;;;8.90;99.90;;;;;;5112134;28;20063;-69
2022/04/18 00:21:14;;;;;;;22.58;12.23;;;8.80;99.90;;;;;;5112233;28;20476;-67
2022/04/18 00:23:39;;;;;;;21.83;12.02;;;8.80;99.90;;;;;;5112213;28;20209;-67
2022/04/18 00:26:05;;;;;;;19.92;12.63;;;8.80;99.90;;;;;;5112010;28;20035;-68
2022/04/18 00:28:30;;;;;;;17.48;11.73;;;8.80;99.90;;;;;;5111677;28;20529;-69
2022/04/18 00:30:57;;;;;;;19.85;12.20;;;8.70;99.90;;;;;;5112023;28;20556;-67
2022/04/18 00:33:23;;;;;;;19.17;11.73;;;8.70;99.90;;;;;;5112108;28;20089;-67
2022/04/18 00:35:49;;;;;;;20.67;13.30;;;8.70;99.90;;;;;;5112010;28;20036;-67
2022/04/18 00:38:14;;;;;;;22.85;12.93;;;8.60;99.90;;;;;;5111950;28;20115;-67
2022/04/18 00:40:40;;;;;;;21.02;12.63;;;8.60;99.90;;;;;;5093352;28;20058;-67
2022/04/18 00:43:06;;;;;;;21.67;12.18;;;8.60;99.90;;;;;;5111661;28;20051;-67
2022/04/18 00:45:32;;;;;;;19.95;12.38;;;8.60;99.90;;;;;;5111760;28;20479;-68
2022/04/18 00:47:58;;;;;;;19.98;13.00;;;8.60;99.90;;;;;;5111759;28;20035;-67
2022/04/18 00:50:24;;;;;;;18.38;11.02;;;8.60;99.90;;;;;;5111476;28;20031;-68
2022/04/18 00:52:53;;;;;;;15.35;11.75;;;8.50;99.90;;;;;;5111604;28;20035;-67
2022/04/18 00:55:20;;;;;;;20.95;12.73;;;8.40;99.90;;;;;;5111675;28;20411;-68
2022/04/18 00:57:47;;;;;;;24.42;12.02;;;8.40;99.90;;;;;;5112109;28;20134;-68
2022/04/18 01:00:14;;;;;;;19.30;11.80;;;8.30;99.90;;;;;;5111319;28;20058;-68
2022/04/18 01:02:39;;;;;;;16.85;12.00;;;8.40;99.90;;;;;;5111386;28;20051;-69
2022/04/18 01:05:06;;;;;;;18.85;12.23;;;8.40;99.90;;;;;;5111547;28;20411;-67
2022/04/18 01:07:32;;;;;;;19.63;11.90;;;8.30;99.90;;;;;;5111381;28;20047;-67
2022/04/18 01:09:58;;;;;;;20.52;13.40;;;8.30;99.90;;;;;;5110991;28;20052;-68
2022/04/18 01:12:24;;;;;;;20.38;12.98;;;8.30;99.90;;;;;;5110741;28;20035;-67
2022/04/18 01:14:50;;;;;;;18.75;12.35;;;8.30;99.90;;;;;;5111389;28;20111;-69
2022/04/18 01:17:16;;;;;;;21.42;13.88;;;8.30;99.90;;;;;;5093247;28;20498;-67
2022/04/18 01:19:42;;;;;;;20.45;13.30;;;8.20;99.90;;;;;;5110941;28;20036;-69
2022/04/18 01:22:09;;;;;;;23.63;13.30;;;8.10;99.90;;;;;;5111527;28;20085;-67
2022/04/18 01:30:07;;;;;;;21.38;13.93;;;8.10;99.90;;;;;;5110891;28;20047;-67
2022/04/18 01:32:32;;;;;;;20.77;13.05;;;8.10;99.90;;;;;;5111153;28;20039;-67
2022/04/18 01:34:58;;;;;;;20.83;12.20;;;8.10;99.90;;;;;;5092908;28;20075;-69
2022/04/18 01:37:24;;;;;;;26.00;13.07;;;8.10;99.90;;;;;;5111096;28;20048;-67
2022/04/18 01:39:50;;;;;;;23.67;13.63;;;8.00;99.90;;;;;;5110933;28;20112;-67
2022/04/18 01:42:15;;;;;;;21.80;12.60;;;8.00;99.90;;;;;;5111196;28;20039;-67
2022/04/18 01:44:41;;;;;;;23.83;13.73;;;8.00;99.90;;;;;;5111026;28;20036;-67
2022/04/18 01:47:07;;;;;;;20.52;12.88;;;7.90;99.90;;;;;;5110963;28;20687;-68
2022/04/18 01:49:32;;;;;;;24.17;13.10;;;8.00;99.90;;;;;;5110612;28;20423;-68
2022/04/18 01:51:58;;;;;;;18.85;12.70;;;7.90;99.90;;;;;;5110877;28;20040;-67
2022/04/18 01:54:24;;;;;;;22.95;13.90;;;7.90;99.90;;;;;;5111053;28;20073;-67
2022/04/18 01:56:49;;;;;;;21.67;13.27;;;7.80;99.90;;;;;;5111018;28;20056;-67
2022/04/18 01:59:15;;;;;;;23.35;13.98;;;7.80;99.90;;;;;;5110566;28;20119;-67
2022/04/18 02:01:40;;;;;;;26.63;14.02;;;7.80;99.90;;;;;;5110798;28;20495;-67
2022/04/18 02:04:07;;;;;;;22.20;12.73;;;7.70;99.90;;;;;;5110645;28;20048;-67
2022/04/18 02:06:32;;;;;;;21.35;14.15;;;7.70;99.90;;;;;;5110907;28;20050;-67
2022/04/18 02:08:58;;;;;;;25.88;14.68;;;7.70;99.90;;;;;;5110623;28;20043;-67
2022/04/18 02:11:23;;;;;;;28.15;15.38;;;7.80;99.90;;;;;;5110939;28;20036;-68
2022/04/18 02:13:49;;;;;;;29.00;14.52;;;7.70;99.90;;;;;;5110717;28;20040;-68
2022/04/18 02:16:15;;;;;;;25.52;14.05;;;7.70;99.90;;;;;;5110771;28;20476;-67
2022/04/18 02:18:40;;;;;;;25.63;14.52;;;7.70;99.90;;;;;;5110340;28;20035;-67
2022/04/18 02:21:11;;;;;;;27.05;15.35;;;7.70;99.90;;;;;;5110944;28;20043;-67
2022/04/18 02:23:37;;;;;;;24.73;15.57;;;7.70;99.90;;;;;;5113841;28;20039;-67
2022/04/18 02:26:03;;;;;;;31.15;16.02;;;7.70;99.90;;;;;;5114605;28;20080;-67
2022/04/18 02:28:30;;;;;;;27.20;15.52;;;7.70;99.90;;;;;;5114283;28;20452;-67
2022/04/18 02:30:55;;;;;;;25.95;15.23;;;7.60;99.90;;;;;;5114468;28;20043;-67
2022/04/18 02:33:21;;;;;;;26.63;15.20;;;7.60;99.90;;;;;;5114193;28;20091;-67
2022/04/18 02:35:46;;;;;;;24.63;14.13;;;7.60;99.90;;;;;;5114446;28;20028;-67
2022/04/18 02:38:12;;;;;;;25.15;14.55;;;7.50;99.90;;;;;;5114341;28;20043;-67
2022/04/18 02:40:37;;;;;;;23.95;15.02;;;7.50;99.90;;;;;;5113985;28;20051;-68
2022/04/18 02:43:04;;;;;;;24.42;14.75;;;7.50;99.90;;;;;;5113671;28;20100;-68
2022/04/18 02:45:31;;;;;;;24.98;14.20;;;7.60;99.90;;;;;;5113806;28;20507;-68
2022/04/18 02:47:57;;;;;;;24.77;15.20;;;7.40;99.90;;;;;;5113943;28;20128;-67
2022/04/18 02:50:23;;;;;;;22.83;14.82;;;7.40;99.90;;;;;;5113971;28;20071;-67
2022/04/18 02:52:48;;;;;;;27.55;14.38;;;7.50;99.90;;;;;;5113975;28;20031;-67
2022/04/18 02:55:14;;;;;;;23.70;14.95;;;7.40;99.90;;;;;;5113915;28;20039;-69
2022/04/18 02:57:40;;;;;;;23.85;14.02;;;7.40;99.90;;;;;;5113971;28;20044;-67
2022/04/18 03:00:07;;;;;;;24.25;14.02;;;7.40;99.90;;;;;;5113521;28;20043;-67
2022/04/18 03:02:33;;;;;;;22.67;14.13;;;7.30;99.90;;;;;;5113718;28;20047;-67
2022/04/18 03:04:58;;;;;;;28.75;14.63;;;7.40;99.90;;;;;;5113859;28;20380;-69
2022/04/18 03:07:24;;;;;;;23.83;14.82;;;7.30;99.90;;;;;;5113719;28;20399;-67
2022/04/18 03:09:49;;;;;;;23.40;15.02;;;7.30;99.90;;;;;;5113496;28;20447;-67
2022/04/18 03:12:15;;;;;;;26.55;16.17;;;7.30;99.90;;;;;;5113601;28;20069;-67
2022/04/18 03:14:41;;;;;;;29.63;15.88;;;7.30;99.90;;;;;;5113424;28;20054;-68
2022/04/18 03:17:06;;;;;;;27.08;15.25;;;7.30;99.90;;;;;;5113307;28;20035;-67
2022/04/18 03:19:32;;;;;;;28.52;15.65;;;7.20;99.90;;;;;;5113345;28;20466;-67
2022/04/18 03:21:59;;;;;;;29.30;14.90;;;7.20;99.90;;;;;;5113353;28;20651;-68
2022/04/18 03:24:24;;;;;;;26.75;15.32;;;7.20;99.90;;;;;;5113371;28;20043;-67
2022/04/18 03:26:50;;;;;;;25.25;15.80;;;7.10;99.90;;;;;;5095014;28;20052;-67
2022/04/18 03:29:17;;;;;;;27.33;16.23;;;7.10;99.90;;;;;;5112953;28;20395;-68
2022/04/18 03:31:42;;;;;;;29.80;17.20;;;7.10;99.90;;;;;;5113097;28;20044;-67
2022/04/18 03:34:08;;;;;;;28.05;17.70;;;7.10;99.90;;;;;;5112533;28;20032;-68
2022/04/18 03:42:03;;;;;;;31.00;15.63;;;7.00;99.90;;;;;;5113099;28;20043;-67
2022/04/18 03:44:28;;;;;;;27.75;15.82;;;7.10;99.90;;;;;;5113139;28;20047;-67
2022/04/18 03:46:54;;;;;;;26.45;15.35;;;7.10;99.90;;;;;;5113079;28;20043;-68
2022/04/18 03:49:20;;;;;;;29.42;16.20;;;6.90;99.90;;;;;;5112504;28;20050;-68
2022/04/18 03:51:46;;;;;;;27.25;15.02;;;6.90;99.90;;;;;;5094748;28;20456;-68
2022/04/18 03:54:12;;;;;;;24.83;14.77;;;6.80;99.90;;;;;;5112748;28;20388;-67
2022/04/18 03:56:37;;;;;;;27.90;16.08;;;6.90;99.90;;;;;;5112602;28;20036;-67
2022/04/18 03:59:03;;;;;;;29.63;14.63;;;6.90;99.90;;;;;;5112483;28;20046;-67
2022/04/18 04:01:28;;;;;;;24.98;15.48;;;6.90;99.90;;;;;;5112593;28;20434;-67
2022/04/18 04:03:54;;;;;;;26.52;15.45;;;6.90;99.90;;;;;;5112620;28;20116;-67
2022/04/18 04:06:20;;;;;;;29.92;14.57;;;6.90;99.90;;;;;;5112552;28;20165;-67
2022/04/18 04:08:45;;;;;;;25.40;13.30;;;6.80;99.90;;;;;;5112224;28;20035;-67
2022/04/18 04:11:11;;;;;;;23.65;13.48;;;6.80;99.90;;;;;;5112278;28;20042;-68
2022/04/18 04:13:37;;;;;;;23.65;13.65;;;6.80;99.90;;;;;;5094271;28;20042;-67
2022/04/18 04:16:03;;;;;;;27.30;13.55;;;6.80;99.90;;;;;;5112478;28;20115;-67
2022/04/18 04:18:28;;;;;;;23.73;12.95;;;6.80;99.90;;;;;;5112123;28;20130;-68
2022/04/18 04:20:54;;;;;;;17.75;12.77;;;6.70;99.90;;;;;;5112356;28;20089;-67
2022/04/18 04:23:19;;;;;;;23.52;13.30;;;6.70;99.90;;;;;;5110927;28;20043;-68
2022/04/18 04:25:45;;;;;;;22.42;13.13;;;6.70;99.90;;;;;;5108896;28;20035;-67
2022/04/18 04:28:11;;;;;;;27.85;13.25;;;6.70;99.90;;;;;;5109997;28;20040;-68
2022/04/18 04:30:36;;;;;;;23.95;14.10;;;6.70;99.90;;;;;;5111932;28;20084;-69
2022/04/18 04:33:02;;;;;;;22.45;14.05;;;6.70;99.90;;;;;;5110805;28;20047;-67
2022/04/18 04:35:28;;;;;;;25.50;14.30;;;6.60;99.90;;;;;;5110915;28;20035;-68
2022/04/18 04:37:53;;;;;;;22.33;13.73;;;6.70;99.90;;;;;;5111930;28;20051;-68
2022/04/18 04:40:19;;;;;;;22.38;14.13;;;6.70;99.90;;;;;;5111483;28;20042;-68
2022/04/18 04:42:45;;;;;;;25.73;13.93;;;6.70;99.90;;;;;;5111956;28;20119;-68
2022/04/18 04:45:11;;;;;;;26.42;13.18;;;6.60;99.90;;;;;;5111952;28;20119;-67
2022/04/18 04:47:36;;;;;;;23.30;13.80;;;6.70;99.90;;;;;;5111827;28;20075;-67
2022/04/18 04:50:02;;;;;;;24.25;14.25;;;6.70;99.90;;;;;;5111518;28;20419;-67
2022/04/18 04:52:27;;;;;;;23.27;14.52;;;6.70;99.90;;;;;;5093392;28;20047;-67
2022/04/18 04:54:53;;;;;;;25.38;13.75;;;6.70;99.90;;;;;;5111480;28;20502;-69
2022/04/18 04:57:18;;;;;;;24.10;14.27;;;6.70;99.90;;;;;;5111830;28;20044;-68
2022/04/18 04:59:44;;;;;;;27.88;14.85;;;6.70;99.90;;;;;;5092968;28;20043;-67
2022/04/18 05:02:10;;;;;;;24.70;14.23;;;6.80;99.90;;;;;;5111725;28;20123;-67
2022/04/18 05:04:35;;;;;;;21.58;13.05;;;6.80;99.90;;;;;;5111552;28;20036;-69
2022/04/18 05:07:01;;;;;;;23.25;13.40;;;6.70;99.90;;;;;;5111446;28;20153;-67
2022/04/18 05:09:26;;;;;;;26.88;13.55;;;6.80;99.90;;;;;;5111115;28;20036;-67
2022/04/18 05:11:55;;;;;;;22.42;14.13;;;6.80;99.90;;;;;;5111568;28;20039;-67
2022/04/18 05:14:21;;;;;;;26.88;12.52;;;6.80;99.90;;;;;;5111431;28;20043;-67
2022/04/18 05:16:46;;;;;;;24.23;13.32;;;6.90;99.90;;;;;;5092968;28;20054;-67
2022/04/18 05:19:12;;;;;;;24.15;14.48;;;7.00;99.90;;;;;;5093048;28;20429;-68
2022/04/18 05:21:37;;;;;;;22.73;13.25;;;7.20;99.90;;;;;;5111147;28;20043;-68
2022/04/18 05:24:03;;;;;;;22.10;13.30;;;7.30;99.90;;;;;;5111168;28;20045;-67
2022/04/18 05:26:29;;;;;;;25.42;14.38;;;7.40;99.90;;;;;;5111330;28;20075;-68
2022/04/18 05:28:54;;;;;;;23.50;13.27;;;7.50;99.90;;;;;;5111016;28;20122;-68
2022/04/18 05:31:20;;;;;;;25.02;13.00;;;7.60;99.90;;;;;;5092889;28;20122;-68
2022/04/18 05:33:46;;;;;;;21.55;11.70;;;7.80;99.90;;;;;;5093115;28;20055;-67
2022/04/18 05:36:12;;;;;;;18.85;12.60;;;7.90;99.90;;;;;;5111215;28;20114;-67
2022/04/18 05:38:37;;;;;;;21.33;12.70;;;8.00;99.90;;;;;;5092653;28;20050;-67
2022/04/18 05:41:03;;;;;;;19.15;12.18;;;8.20;99.90;;;;;;5092842;28;20047;-67
2022/04/18 05:43:29;;;;;;;21.17;12.35;;;8.30;99.90;;;;;;5111058;28;20039;-69
2022/04/18 05:45:54;;;;;;;22.75;13.32;;;8.30;99.90;;;;;;5092868;28;20039;-67
2022/04/18 05:48:20;;;;;;;21.95;12.75;;;8.50;99.90;;;;;;5110880;28;20058;-68
2022/04/18 05:50:46;;;;;;;19.15;12.15;;;8.50;99.90;;;;;;5110896;28;20529;-67
2022/04/18 05:53:13;;;;;;;20.30;13.13;;;8.70;99.90;;;;;;5111122;28;20035;-68
2022/04/18 05:55:39;;;;;;;18.52;11.23;;;8.70;99.90;;;;;;5111256;28;20044;-68
2022/04/18 05:58:04;;;;;;;20.48;12.68;;;8.80;99.90;;;;;;5113416;28;20046;-68
2022/04/18 06:00:32;;;;;;;15.68;11.93;;;8.90;99.90;;;;;;5096419;28;20465;-68
2022/04/18 06:02:58;;;;;;;17.77;11.20;;;9.00;99.90;;;;;;5115085;28;20043;-68
2022/04/18 06:05:24;;;;;;;16.83;11.15;;;9.20;99.90;;;;;;5114947;28;20053;-67
2022/04/18 06:07:50;;;;;;;20.23;11.68;;;9.20;99.90;;;;;;5114692;28;20206;-68
2022/04/18 06:10:15;;;;;;;18.00;11.93;;;9.30;99.90;;;;;;5114651;28;20517;-68
2022/04/18 06:12:41;;;;;;;17.55;11.27;;;9.40;99.90;;;;;;5115005;28;20119;-68
2022/04/18 06:15:07;;;;;;;16.65;11.02;;;9.40;99.90;;;;;;5115045;28;20119;-68
2022/04/18 06:17:33;;;;;;;18.70;11.55;;;9.40;99.90;;;;;;5114836;28;20047;-67
2022/04/18 06:19:58;;;;;;;21.70;12.45;;;9.50;99.90;;;;;;5096356;28;20131;-68
2022/04/18 06:22:24;;;;;;;15.35;10.40;;;9.60;99.90;;;;;;5114578;28;20126;-67
2022/04/18 06:24:49;;;;;;;17.27;11.95;;;9.70;99.90;;;;;;5114747;28;20092;-67
2022/04/18 06:27:15;;;;;;;17.60;10.73;;;9.70;99.90;;;;;;5096349;28;20040;-67
2022/04/18 06:29:40;;;;;;;18.00;10.80;;;9.70;99.90;;;;;;5114219;28;20044;-67
2022/04/18 06:32:06;;;;;;;17.25;10.90;;;9.80;99.60;;;;;;5114350;28;20043;-68
2022/04/18 06:34:32;;;;;;;17.60;11.75;;;9.90;99.90;;;;;;5114335;28;20067;-67
2022/04/18 06:36:57;;;;;;;17.35;10.57;;;10.00;99.90;;;;;;5111121;28;20414;-66
2022/04/18 06:39:23;;;;;;;16.48;10.77;;;10.00;99.90;;;;;;5103802;28;20525;-67
2022/04/18 06:41:49;;;;;;;17.58;11.40;;;10.00;99.90;;;;;;5103388;28;20039;-67
2022/04/18 06:44:14;;;;;;;17.73;10.43;;;10.20;99.90;;;;;;5083536;28;20488;-68
2022/04/18 06:46:40;;;;;;;17.67;10.15;;;10.20;99.40;;;;;;5101770;28;20036;-67
2022/04/18 06:49:06;;;;;;;16.73;10.23;;;10.30;99.50;;;;;;5103985;28;20093;-67
2022/04/18 06:51:31;;;;;;;14.85;10.32;;;10.30;99.70;;;;;;5103212;28;20032;-67
2022/04/18 06:53:57;;;;;;;16.63;9.98;;;10.40;99.40;;;;;;5102740;28;20089;-72
2022/04/18 06:59:06;;;;;;;13.20;9.35;;;10.60;99.90;;;;;;5085330;28;20039;-72
2022/04/18 07:01:32;;;;;;;14.85;9.65;;;10.70;99.00;;;;;;5101821;28;20042;-72
2022/04/18 07:03:58;;;;;;;14.65;9.95;;;10.70;98.60;;;;;;5088208;28;20114;-72
2022/04/18 07:06:23;;;;;;;17.98;10.13;;;10.60;96.10;;;;;;5104475;28;20095;-71
2022/04/18 07:08:50;;;;;;;14.93;10.13;;;10.70;96.20;;;;;;5114511;28;20065;-71
2022/04/18 07:11:15;;;;;;;17.00;10.48;;;10.70;97.50;;;;;;5103523;28;20051;-72
2022/04/18 07:13:41;;;;;;;16.58;10.63;;;10.70;96.60;;;;;;5096076;28;20036;-72
2022/04/18 07:16:07;;;;;;;17.90;11.30;;;10.90;98.10;;;;;;5087418;28;20391;-72
2022/04/18 07:18:33;;;;;;;16.52;10.73;;;11.00;98.30;;;;;;5086490;28;20034;-72
2022/04/18 07:20:59;;;;;;;19.00;11.50;;;11.10;98.50;;;;;;5086656;28;20126;-72
2022/04/18 07:23:25;;;;;;;17.00;11.48;;;11.20;98.60;;;;;;5091962;28;20122;-72
2022/04/18 07:25:50;;;;;;;17.92;11.15;;;11.30;98.00;;;;;;5086411;28;20412;-72
2022/04/18 07:28:16;;;;;;;21.00;11.70;;;11.30;94.60;;;;;;5086561;28;20036;-72
2022/04/18 07:30:42;;;;;;;15.75;10.82;;;11.30;95.40;;;;;;5077884;28;20518;-72
2022/04/18 07:33:07;;;;;;;17.40;10.68;;;11.30;94.30;;;;;;5092757;28;20064;-73
2022/04/18 07:35:34;;;;;;;16.10;10.10;;;11.40;95.60;;;;;;5091507;28;20040;-73
2022/04/18 07:40:44;;;;;;;16.17;9.10;;;11.60;92.50;;;;;;5091389;28;20497;-73
2022/04/18 07:43:10;;;;;;;13.07;9.38;;;11.70;86.50;;;;;;5074491;28;20161;-74
2022/04/18 07:45:39;;;;;;;14.60;9.55;;;11.80;91.10;;;;;;5074587;28;20490;-73
2022/04/18 07:48:07;;;;;;;13.68;9.40;;;11.80;91.20;;;;;;5091404;28;20454;-73
2022/04/18 07:53:16;;;;;;;15.73;9.98;;;11.70;93.20;;;;;;5091169;28;20127;-73
2022/04/18 07:55:42;;;;;;;14.60;8.98;;;11.70;92.60;;;;;;5074522;28;20136;-73
2022/04/18 07:58:07;;;;;;;11.35;9.05;;;11.80;93.40;;;;;;5074220;28;20036;-73
2022/04/18 08:00:33;;;;;;;15.25;8.75;;;11.90;92.10;;;;;;5073911;28;20106;-73
2022/04/18 08:02:59;;;;;;;12.75;8.73;;;11.90;91.00;;;;;;5074134;28;20048;-74
2022/04/18 08:05:24;;;;;;;12.77;8.68;;;12.00;91.10;;;;;;5092366;28;20039;-73
2022/04/18 08:07:50;;;;;;;15.10;9.30;;;12.10;90.10;;;;;;5092237;28;20043;-73
2022/04/18 08:10:15;;;;;;;12.52;8.52;;;12.10;91.70;;;;;;5091927;28;20083;-73
2022/04/18 08:12:41;;;;;;;13.90;8.95;;;12.20;91.30;;;;;;5091931;28;20471;-73
2022/04/18 08:15:08;;;;;;;15.00;8.32;;;12.20;92.80;;;;;;5073903;28;20051;-73
2022/04/18 08:17:34;;;;;;;12.80;8.93;;;12.30;94.30;;;;;;5057280;28;20044;-73
2022/04/18 08:20:00;;;;;;;14.32;8.95;;;12.30;96.00;;;;;;5073445;28;20536;-74
2022/04/18 08:22:25;;;;;;;14.70;9.73;;;12.40;92.50;;;;;;5091917;28;20081;-74
2022/04/18 08:24:51;;;;;;;14.43;8.95;;;12.50;95.20;;;;;;5073676;28;20385;-74
2022/04/18 08:27:16;;;;;;;16.50;9.38;;;12.50;94.30;;;;;;5073722;28;20522;-74
2022/04/18 08:29:42;;;;;;;15.73;9.30;;;12.60;95.30;;;;;;5073401;28;20036;-74
2022/04/18 08:32:08;;;;;;;13.73;8.50;;;12.70;95.70;;;;;;5092012;28;20031;-73
2022/04/18 08:34:33;;;;;;;15.27;8.75;;;12.80;97.50;;;;;;5073418;28;20044;-73
2022/04/18 08:36:59;;;;;;;13.23;8.60;;;12.80;96.10;;;;;;5073547;28;20055;-73
2022/04/18 08:39:26;;;;;;;12.07;7.72;;;12.90;97.80;;;;;;5073232;28;20377;-73
2022/04/18 08:41:57;;;;;;;11.13;7.70;;;13.00;91.60;;;;;;5073320;28;20048;-73
2022/04/18 08:44:25;;;;;;;14.63;8.35;;;13.00;72.20;;;;;;5072728;28;20094;-73
2022/04/18 08:46:51;;;;;;;12.68;7.75;;;13.10;81.00;;;;;;5073192;28;20048;-73
2022/04/18 08:54:48;;;;;;;10.85;7.35;;;13.50;74.70;;;;;;5089854;28;20048;-69
2022/04/18 08:57:13;;;;;;;12.05;8.00;;;13.60;60.20;;;;;;5091545;28;20421;-69
2022/04/18 08:59:39;;;;;;;11.95;7.15;;;13.70;67.80;;;;;;5072699;28;20137;-69
2022/04/18 09:02:04;;;;;;;12.27;7.95;;;13.80;64.30;;;;;;5091412;28;20400;-68
2022/04/18 09:04:30;;;;;;;13.20;8.38;;;13.90;62.70;;;;;;5092581;28;20039;-68
2022/04/18 09:07:06;;;;;;;16.80;7.93;;;13.90;62.20;;;;;;5108542;28;20126;-68
2022/04/18 09:09:36;;;;;;;10.45;7.60;;;14.00;66.90;;;;;;5110810;28;20035;-68
2022/04/18 09:12:02;;;;;;;13.00;7.72;;;14.00;63.00;;;;;;5102388;28;20031;-69
2022/04/18 09:14:27;;;;;;;12.48;7.68;;;14.20;63.80;;;;;;5100265;28;20103;-70
2022/04/18 09:16:53;;;;;;;13.57;8.30;;;14.20;61.30;;;;;;5101461;28;20042;-68
2022/04/18 09:19:19;;;;;;;11.25;7.32;;;14.20;60.50;;;;;;5099028;28;20043;-69
2022/04/18 09:21:59;;;;;;;10.07;7.10;;;14.20;59.40;;;;;;5080900;28;20036;-68
2022/04/18 09:24:31;;;;;;;12.65;7.80;;;14.20;62.60;;;;;;5073128;28;20544;-68
2022/04/18 09:26:58;;;;;;;13.07;7.32;;;14.40;58.90;;;;;;5099253;28;20088;-68
2022/04/18 09:29:24;;;;;;;9.63;6.68;;;14.50;68.30;;;;;;5093690;28;20047;-68
2022/04/18 09:31:52;;;;;;;13.07;7.15;;;14.50;63.30;;;;;;5110559;28;20105;-69
2022/04/18 09:34:20;;;;;;;10.77;7.47;;;14.60;59.20;;;;;;5110973;28;20509;-70
2022/04/18 09:36:45;;;;;;;10.20;7.93;;;14.70;60.10;;;;;;5111331;28;20039;-68
2022/04/18 09:39:11;;;;;;;12.68;7.20;;;14.70;60.80;;;;;;5092583;28;20473;-68
2022/04/18 09:41:36;;;;;;;13.43;7.85;;;14.70;61.30;;;;;;5111250;28;20040;-73
2022/04/18 09:44:02;;;;;;;10.25;7.13;;;14.90;60.70;;;;;;5092850;28;20039;-73
2022/04/18 09:46:28;;;;;;;12.07;8.02;;;15.00;59.70;;;;;;5111046;28;20036;-73
2022/04/18 09:49:01;;;;;;;10.95;7.50;;;14.90;57.70;;;;;;5092719;28;20035;-73
2022/04/18 09:51:29;;;;;;;11.00;6.45;;;14.90;59.30;;;;;;5092803;28;20039;-73
2022/04/18 09:53:57;;;;;;;11.75;8.25;;;15.20;54.10;;;;;;5111106;28;20474;-73
2022/04/18 09:56:24;;;;;;;13.23;7.55;;;15.30;56.80;;;;;;5092921;28;20043;-74
2022/04/18 09:58:49;;;;;;;12.45;7.32;;;15.40;59.00;;;;;;5110825;28;20088;-74
2022/04/18 10:01:18;;;;;;;9.80;6.88;;;15.40;60.20;;;;;;5092618;28;20111;-73
2022/04/18 10:03:46;;;;;;;12.63;6.85;;;15.60;57.30;;;;;;5110931;28;20047;-73
2022/04/18 10:06:12;;;;;;;10.25;6.82;;;15.40;57.50;;;;;;5092626;28;20089;-74
2022/04/18 10:08:38;;;;;;;9.88;6.22;;;15.60;57.10;;;;;;5110490;28;20032;-73
2022/04/18 10:11:07;;;;;;;7.28;5.35;;;15.80;55.50;;;;;;5111077;28;20122;-72
2022/04/18 10:13:35;;;;;;;9.40;5.68;;;15.60;52.40;;;;;;5110872;28;20046;-74
2022/04/18 10:16:01;;;;;;;7.47;5.65;;;15.70;54.00;;;;;;5075670;28;20035;-73
2022/04/18 10:18:28;;;;;;;9.65;5.95;;;15.70;52.50;;;;;;5110593;28;20079;-73
2022/04/18 10:20:56;;;;;;;10.35;5.85;;;15.60;52.10;;;;;;5092657;28;20505;-73
2022/04/18 10:23:56;;;;;;;11.80;5.55;;;15.70;55.10;;;;;;5092310;28;20067;-73
2022/04/18 10:26:30;;;;;;;8.15;5.13;;;15.90;51.90;;;;;;5110581;28;20427;-73
2022/04/18 10:29:00;;;;;;;7.65;4.68;;;15.80;49.30;;;;;;5110653;28;20043;-73
2022/04/18 10:31:32;;;;;;;6.50;3.83;;;15.90;49.80;;;;;;5092729;28;20466;-73
2022/04/18 10:33:59;;;;;;;7.93;4.45;;;15.80;47.40;;;;;;5092487;28;20114;-73
2022/04/18 10:36:32;;;;;;;9.50;5.43;;;15.80;47.30;;;;;;5110702;28;20119;-73
2022/04/18 10:39:05;;;;;;;8.13;5.10;;;15.90;48.30;;;;;;5092072;28;20036;-73
2022/04/18 10:41:31;;;;;;;;;;;15.90;49.30;;;;;;5092900;28;20048;-72
2022/04/18 10:43:59;;;;;;;8.80;4.63;;;16.00;50.00;;;;;;5112575;28;19922;-72
2022/04/18 10:46:25;;;;;;;10.98;4.38;;;16.30;52.00;;;;;;5114287;28;20035;-72
2022/04/18 10:48:56;;;;;;;8.25;5.00;;;16.50;51.70;;;;;;5113940;28;20111;-72
2022/04/18 10:51:36;;;;;;;8.50;4.95;;;16.30;50.30;;;;;;5113980;28;20036;-71
2022/04/18 10:54:08;;;;;;;8.00;4.65;;;16.50;48.50;;;;;;5114234;28;20042;-72
2022/04/18 10:56:52;;;;;;;9.50;5.28;;;16.60;49.50;;;;;;5095720;28;20048;-75
2022/04/18 10:59:20;;;;;;;9.88;5.18;;;16.40;49.10;;;;;;5095352;28;20044;-74
2022/04/18 11:01:46;;;;;;;7.70;4.45;;;16.50;48.60;;;;;;5095518;28;20039;-74
2022/04/18 11:04:13;;;;;;;7.75;5.10;;;16.70;50.40;;;;;;5095756;28;20138;-74
2022/04/18 11:06:39;;;;;;;6.32;4.22;;;16.70;49.30;;;;;;5078547;28;20059;-74
2022/04/18 11:09:10;;;;;;;6.78;4.53;;;16.80;47.40;;;;;;5095436;28;20083;-74
2022/04/18 11:11:50;;;;;;;6.88;4.18;;;16.90;46.40;;;;;;5113877;28;20035;-74
2022/04/18 11:14:28;;;;;;;7.78;4.70;;;17.00;47.30;;;;;;5113495;28;20085;-72
2022/04/18 11:16:58;;;;;;;7.97;4.93;;;17.00;46.90;;;;;;5113908;28;20090;-73
2022/04/18 11:19:38;;;;;;;7.38;4.43;;;17.30;46.50;;;;;;5095059;28;20051;-73
2022/04/18 11:22:25;;;;;;;7.97;4.78;;;17.30;45.30;;;;;;5095359;28;20047;-73
2022/04/18 11:24:51;;;;;;;9.35;5.35;;;17.00;44.90;;;;;;5094968;28;20135;-73
2022/04/18 11:27:30;;;;;;;7.28;5.25;;;17.10;46.30;;;;;;5095200;28;20478;-73
2022/04/18 11:29:57;;;;;;;6.22;4.50;;;17.20;45.10;;;;;;5094959;28;20043;-73
2022/04/18 11:32:34;;;;;;;7.13;4.85;;;17.10;45.50;;;;;;5095403;28;20430;-73
2022/04/18 11:35:00;;;;;;;7.13;5.38;;;17.20;45.40;;;;;;5113311;28;20043;-73
2022/04/18 11:37:31;;;;;;;9.60;5.18;;;17.30;44.80;;;;;;5095204;28;20470;-73
2022/04/18 11:39:59;;;;;;;8.45;4.82;;;17.10;44.70;;;;;;5113302;28;20045;-72
2022/04/18 11:42:28;;;;;;;9.30;5.38;;;17.10;45.20;;;;;;5078425;28;20096;-73
2022/04/18 11:44:56;;;;;;;8.43;5.07;;;17.30;45.40;;;;;;5094894;28;20498;-73
2022/04/18 11:47:24;;;;;;;7.05;4.90;;;17.30;45.10;;;;;;5095019;28;20052;-72
2022/04/18 11:49:58;;;;;;;7.90;5.10;;;17.20;45.90;;;;;;5094683;28;20047;-72
2022/04/18 11:52:32;;;;;;;9.40;5.80;;;17.30;45.30;;;;;;5113179;28;20036;-72
2022/04/18 11:55:01;;;;;;;10.52;6.07;;;17.30;44.90;;;;;;5094420;28;20050;-72
2022/04/18 11:57:29;;;;;;;8.07;5.13;;;17.20;44.80;;;;;;5094656;28;20043;-72
2022/04/18 11:59:55;;;;;;;6.93;5.00;;;17.40;45.60;;;;;;5094194;28;20047;-73
2022/04/18 12:08:00;;;;;;;9.57;5.60;;;17.40;43.60;;;;;;5112707;28;20047;-71
2022/04/18 12:10:28;;;;;;;8.25;5.32;;;17.60;46.40;;;;;;5094366;28;20070;-73
2022/04/18 12:12:55;;;;;;;10.70;5.07;;;17.50;46.80;;;;;;5077552;28;20127;-73
2022/04/18 12:15:22;;;;;;;7.63;4.82;;;17.60;46.30;;;;;;5077445;28;20047;-71
2022/04/18 12:17:48;;;;;;;8.27;5.45;;;17.80;45.80;;;;;;5094355;28;20044;-72
2022/04/18 12:20:25;;;;;;;8.95;5.47;;;17.70;45.90;;;;;;5094142;28;20480;-72
2022/04/18 12:22:53;;;;;;;9.10;5.82;;;17.80;43.20;;;;;;5112232;28;20078;-72
2022/04/18 12:25:23;;;;;;;10.15;5.65;;;17.60;42.30;;;;;;5094049;28;20039;-72
2022/04/18 12:27:49;;;;;;;8.77;4.65;;;17.70;44.30;;;;;;5112450;28;20036;-72
2022/04/18 12:30:16;;;;;;;8.35;5.63;;;17.70;46.30;;;;;;5093746;28;20040;-72
2022/04/18 12:32:44;;;;;;;8.68;5.85;;;17.90;43.50;;;;;;5093930;28;20074;-72
2022/04/18 12:35:10;;;;;;;8.23;5.78;;;18.00;44.10;;;;;;5112260;28;20048;-72
2022/04/18 12:37:35;;;;;;;8.45;5.50;;;18.00;44.60;;;;;;5112106;28;20040;-72
2022/04/18 12:40:14;;;;;;;7.80;5.55;;;18.00;43.40;;;;;;5111916;28;20074;-72
2022/04/18 12:42:39;;;;;;;7.47;4.90;;;18.10;41.30;;;;;;5111989;28;20048;-72
2022/04/18 12:45:05;;;;;;;9.80;5.68;;;18.10;42.90;;;;;;5093859;28;20043;-72
2022/04/18 12:47:34;;;;;;;8.27;5.60;;;17.90;44.30;;;;;;5112024;28;20082;-72
2022/04/18 12:50:11;;;;;;;7.80;5.45;;;17.90;43.30;;;;;;5111640;28;20044;-72
2022/04/18 12:52:49;;;;;;;8.52;6.00;;;17.90;42.90;;;;;;5112120;28;20642;-72
2022/04/18 12:55:15;;;;;;;8.95;6.07;;;17.90;43.90;;;;;;5093871;28;20411;-73
2022/04/18 12:57:45;;;;;;;7.05;5.70;;;17.90;42.90;;;;;;5111882;28;20032;-72
2022/04/18 13:00:14;;;;;;;9.50;5.57;;;17.80;43.40;;;;;;5111434;28;20050;-72
2022/04/18 13:02:40;;;;;;;7.18;5.50;;;17.80;43.10;;;;;;5111642;28;20074;-72
2022/04/18 13:05:06;;;;;;;9.80;5.97;;;18.00;44.10;;;;;;5112048;28;20141;-71
2022/04/18 13:07:40;;;;;;;7.20;5.60;;;18.10;44.30;;;;;;5092711;28;20113;-71